createdAt,value
2022-10-12T00:00:03.428Z,1018.9
2022-10-12T00:01:06.880Z,1018.9
2022-10-12T00:02:10.130Z,1018.9
2022-10-12T00:03:13.774Z,1018.9
2022-10-12T00:04:17.123Z,1018.9
2022-10-12T00:05:20.880Z,1018.9
2022-10-12T00:06:24.269Z,1018.9
2022-10-12T00:07:27.912Z,1018.9
2022-10-12T00:08:31.755Z,1018.9
2022-10-12T00:09:34.831Z,1018.9
2022-10-12T00:10:38.196Z,1018.9
2022-10-12T00:11:41.703Z,1018.9
2022-10-12T00:12:44.492Z,1018.9
2022-10-12T00:13:47.699Z,1018.9
2022-10-12T00:14:50.502Z,1018.9
2022-10-12T00:15:53.585Z,1018.9
2022-10-12T00:16:56.109Z,1018.9
2022-10-12T00:17:59.502Z,1018.9
2022-10-12T00:19:02.625Z,1019
2022-10-12T00:20:06.271Z,1019
2022-10-12T00:21:09.996Z,1019
2022-10-12T00:22:12.680Z,1019
2022-10-12T00:23:16.378Z,1019
2022-10-12T00:24:19.350Z,1019
2022-10-12T00:25:21.668Z,1019
2022-10-12T00:26:24.941Z,1019
2022-10-12T00:27:28.393Z,1019
2022-10-12T00:28:31.451Z,1019
2022-10-12T00:29:34.166Z,1019
2022-10-12T00:30:36.774Z,1019
2022-10-12T00:31:39.832Z,1018.9
2022-10-12T00:32:42.994Z,1019
2022-10-12T00:33:46.649Z,1019
2022-10-12T00:34:50.164Z,1019
2022-10-12T00:35:53.000Z,1019
2022-10-12T00:36:56.148Z,1019
2022-10-12T00:37:59.588Z,1019
2022-10-12T00:39:03.031Z,1019
2022-10-12T00:40:06.490Z,1019
2022-10-12T00:41:09.305Z,1019
2022-10-12T00:42:12.378Z,1019
2022-10-12T00:43:16.115Z,1019
2022-10-12T00:44:18.828Z,1019
2022-10-12T00:45:21.354Z,1019
2022-10-12T00:46:23.793Z,1019
2022-10-12T00:47:27.056Z,1019
2022-10-12T00:48:29.575Z,1019
2022-10-12T00:49:32.922Z,1019
2022-10-12T00:50:36.075Z,1019
2022-10-12T00:51:38.866Z,1019
2022-10-12T00:52:42.128Z,1019
2022-10-12T00:53:45.006Z,1019
2022-10-12T00:54:48.782Z,1019
2022-10-12T00:55:52.010Z,1019
2022-10-12T00:56:54.808Z,1019
2022-10-12T00:57:58.267Z,1019
2022-10-12T00:59:01.018Z,1019
2022-10-12T01:00:03.520Z,1019
2022-10-12T01:01:07.438Z,1019
2022-10-12T01:02:11.150Z,1019
2022-10-12T01:03:14.260Z,1019
2022-10-12T01:04:17.634Z,1019
2022-10-12T01:05:21.063Z,1019
2022-10-12T01:06:24.536Z,1018.9
2022-10-12T01:07:27.883Z,1019
2022-10-12T01:08:31.148Z,1019
2022-10-12T01:09:33.852Z,1019
2022-10-12T01:10:37.102Z,1019
2022-10-12T01:11:40.165Z,1019
2022-10-12T01:12:42.963Z,1019
2022-10-12T01:13:45.202Z,1019
2022-10-12T01:14:48.642Z,1019
2022-10-12T01:15:51.993Z,1019
2022-10-12T01:16:54.500Z,1019
2022-10-12T01:17:57.585Z,1019
2022-10-12T01:19:00.379Z,1019
2022-10-12T01:20:03.460Z,1019
2022-10-12T01:21:06.271Z,1019
2022-10-12T01:22:08.926Z,1019
2022-10-12T01:23:12.285Z,1019
2022-10-12T01:24:15.988Z,1019
2022-10-12T01:25:19.692Z,1019.1
2022-10-12T01:26:23.141Z,1019
2022-10-12T01:27:26.873Z,1019
2022-10-12T01:28:29.516Z,1019
2022-10-12T01:29:33.004Z,1019
2022-10-12T01:30:35.527Z,1019
2022-10-12T01:31:38.216Z,1019
2022-10-12T01:32:41.224Z,1019
2022-10-12T01:33:44.222Z,1018.9
2022-10-12T01:34:47.292Z,1018.9
2022-10-12T01:35:51.019Z,1018.9
2022-10-12T01:36:53.877Z,1018.9
2022-10-12T01:37:57.734Z,1018.9
2022-10-12T01:39:01.168Z,1018.9
2022-10-12T01:40:03.825Z,1018.9
2022-10-12T01:41:07.027Z,1018.8
2022-10-12T01:42:10.456Z,1018.8
2022-10-12T01:43:13.118Z,1018.8
2022-10-12T01:44:16.537Z,1018.8
2022-10-12T01:45:19.121Z,1018.8
2022-10-12T01:46:22.215Z,1018.8
2022-10-12T01:47:25.307Z,1018.8
2022-10-12T01:48:27.911Z,1018.8
2022-10-12T01:49:30.347Z,1018.8
2022-10-12T01:50:33.449Z,1018.8
2022-10-12T01:51:35.418Z,1018.8
2022-10-12T01:52:38.762Z,1018.8
2022-10-12T01:53:41.785Z,1018.8
2022-10-12T01:54:45.156Z,1018.8
2022-10-12T01:55:48.217Z,1018.8
2022-10-12T01:56:51.097Z,1018.8
2022-10-12T01:57:54.631Z,1018.8
2022-10-12T01:58:57.871Z,1018.8
2022-10-12T02:00:01.326Z,1018.7
2022-10-12T02:01:05.198Z,1018.8
2022-10-12T02:02:09.410Z,1018.8
2022-10-12T02:03:12.273Z,1018.8
2022-10-12T02:04:15.241Z,1018.8
2022-10-12T02:05:18.049Z,1018.7
2022-10-12T02:06:20.395Z,1018.8
2022-10-12T02:07:24.125Z,1018.7
2022-10-12T02:08:27.188Z,1018.7
2022-10-12T02:09:30.409Z,1018.7
2022-10-12T02:10:33.479Z,1018.7
2022-10-12T02:11:36.460Z,1018.8
2022-10-12T02:12:39.255Z,1018.7
2022-10-12T02:13:42.964Z,1018.8
2022-10-12T02:14:45.856Z,1018.7
2022-10-12T02:15:48.913Z,1018.8
2022-10-12T02:16:51.774Z,1018.8
2022-10-12T02:17:54.589Z,1018.7
2022-10-12T02:18:57.019Z,1018.7
2022-10-12T02:19:59.914Z,1018.7
2022-10-12T02:21:03.076Z,1018.7
2022-10-12T02:22:06.237Z,1018.7
2022-10-12T02:23:09.707Z,1018.7
2022-10-12T02:24:12.879Z,1018.7
2022-10-12T02:25:16.210Z,1018.7
2022-10-12T02:26:19.274Z,1018.6
2022-10-12T02:27:22.437Z,1018.6
2022-10-12T02:28:26.025Z,1018.6
2022-10-12T02:29:29.875Z,1018.6
2022-10-12T02:30:33.236Z,1018.6
2022-10-12T02:31:35.937Z,1018.6
2022-10-12T02:32:38.096Z,1018.7
2022-10-12T02:33:41.180Z,1018.6
2022-10-12T02:34:43.694Z,1018.6
2022-10-12T02:35:47.017Z,1018.6
2022-10-12T02:36:50.162Z,1018.6
2022-10-12T02:37:52.964Z,1018.6
2022-10-12T02:38:55.770Z,1018.6
2022-10-12T02:39:58.595Z,1018.6
2022-10-12T02:41:01.825Z,1018.6
2022-10-12T02:42:05.526Z,1018.6
2022-10-12T02:43:11.754Z,1018.6
2022-10-12T02:44:14.859Z,1018.6
2022-10-12T02:45:18.585Z,1018.6
2022-10-12T02:46:22.315Z,1018.6
2022-10-12T02:47:25.653Z,1018.6
2022-10-12T02:48:28.448Z,1018.6
2022-10-12T02:49:31.377Z,1018.6
2022-10-12T02:50:34.526Z,1018.6
2022-10-12T02:51:37.617Z,1018.6
2022-10-12T02:52:40.496Z,1018.6
2022-10-12T02:53:43.681Z,1018.6
2022-10-12T02:54:46.879Z,1018.6
2022-10-12T02:55:49.689Z,1018.6
2022-10-12T02:56:52.634Z,1018.5
2022-10-12T02:57:55.426Z,1018.6
2022-10-12T02:58:58.412Z,1018.5
2022-10-12T03:00:00.360Z,1018.5
2022-10-12T03:01:03.978Z,1018.6
2022-10-12T03:02:07.534Z,1018.6
2022-10-12T03:03:10.608Z,1018.6
2022-10-12T03:04:13.330Z,1018.6
2022-10-12T03:05:16.599Z,1018.6
2022-10-12T03:06:20.159Z,1018.6
2022-10-12T03:07:23.311Z,1018.6
2022-10-12T03:08:26.377Z,1018.6
2022-10-12T03:09:29.805Z,1018.6
2022-10-12T03:10:32.513Z,1018.6
2022-10-12T03:11:35.139Z,1018.5
2022-10-12T03:12:38.354Z,1018.6
2022-10-12T03:13:41.701Z,1018.5
2022-10-12T03:14:43.937Z,1018.5
2022-10-12T03:15:47.322Z,1018.5
2022-10-12T03:16:51.121Z,1018.5
2022-10-12T03:17:54.111Z,1018.5
2022-10-12T03:18:57.808Z,1018.5
2022-10-12T03:20:00.945Z,1018.5
2022-10-12T03:21:03.350Z,1018.5
2022-10-12T03:22:06.698Z,1018.5
2022-10-12T03:23:09.758Z,1018.5
2022-10-12T03:24:12.283Z,1018.5
2022-10-12T03:25:14.518Z,1018.5
2022-10-12T03:26:18.215Z,1018.5
2022-10-12T03:27:21.288Z,1018.5
2022-10-12T03:28:24.716Z,1018.4
2022-10-12T03:29:28.841Z,1018.4
2022-10-12T03:30:32.100Z,1018.5
2022-10-12T03:31:35.876Z,1018.5
2022-10-12T03:32:39.336Z,1018.5
2022-10-12T03:33:41.938Z,1018.5
2022-10-12T03:34:44.713Z,1018.5
2022-10-12T03:35:47.489Z,1018.5
2022-10-12T03:36:50.905Z,1018.5
2022-10-12T03:37:54.510Z,1018.5
2022-10-12T03:38:58.053Z,1018.4
2022-10-12T03:40:01.532Z,1018.4
2022-10-12T03:41:07.367Z,1018.4
2022-10-12T03:42:10.450Z,1018.5
2022-10-12T03:43:13.241Z,1018.5
2022-10-12T03:44:16.666Z,1018.5
2022-10-12T03:45:20.368Z,1018.5
2022-10-12T03:46:23.906Z,1018.5
2022-10-12T03:47:27.046Z,1018.5
2022-10-12T03:48:30.687Z,1018.4
2022-10-12T03:49:33.873Z,1018.5
2022-10-12T03:50:37.127Z,1018.4
2022-10-12T03:51:39.571Z,1018.5
2022-10-12T03:52:42.670Z,1018.5
2022-10-12T03:53:46.140Z,1018.5
2022-10-12T03:54:48.656Z,1018.5
2022-10-12T03:55:51.522Z,1018.5
2022-10-12T03:56:54.322Z,1018.5
2022-10-12T03:57:57.403Z,1018.5
2022-10-12T03:59:00.552Z,1018.4
2022-10-12T04:00:03.681Z,1018.4
2022-10-12T04:01:07.539Z,1018.4
2022-10-12T04:02:17.213Z,1018.5
2022-10-12T04:03:20.572Z,1018.5
2022-10-12T04:04:23.461Z,1018.5
2022-10-12T04:05:26.243Z,1018.5
2022-10-12T04:06:29.022Z,1018.5
2022-10-12T04:07:31.931Z,1018.5
2022-10-12T04:08:34.728Z,1018.5
2022-10-12T04:09:38.145Z,1018.5
2022-10-12T04:10:41.505Z,1018.5
2022-10-12T04:11:44.619Z,1018.5
2022-10-12T04:12:47.493Z,1018.5
2022-10-12T04:13:50.649Z,1018.5
2022-10-12T04:14:53.440Z,1018.5
2022-10-12T04:15:57.597Z,1018.5
2022-10-12T04:17:00.743Z,1018.4
2022-10-12T04:18:03.542Z,1018.5
2022-10-12T04:19:06.904Z,1018.5
2022-10-12T04:20:10.632Z,1018.5
2022-10-12T04:21:13.430Z,1018.5
2022-10-12T04:22:16.800Z,1018.5
2022-10-12T04:23:19.772Z,1018.5
2022-10-12T04:24:22.008Z,1018.4
2022-10-12T04:25:30.791Z,1018.5
2022-10-12T04:26:33.502Z,1018.5
2022-10-12T04:27:37.233Z,1018.5
2022-10-12T04:28:42.634Z,1018.5
2022-10-12T04:29:45.526Z,1018.5
2022-10-12T04:30:48.590Z,1018.5
2022-10-12T04:31:51.745Z,1018.5
2022-10-12T04:32:54.884Z,1018.4
2022-10-12T04:33:57.967Z,1018.5
2022-10-12T04:35:01.380Z,1018.4
2022-10-12T04:36:05.183Z,1018.4
2022-10-12T04:37:08.614Z,1018.5
2022-10-12T04:38:11.441Z,1018.4
2022-10-12T04:39:14.319Z,1018.4
2022-10-12T04:40:18.045Z,1018.4
2022-10-12T04:41:21.256Z,1018.5
2022-10-12T04:42:24.840Z,1018.5
2022-10-12T04:43:27.718Z,1018.4
2022-10-12T04:44:32.930Z,1018.5
2022-10-12T04:45:36.073Z,1018.5
2022-10-12T04:46:38.670Z,1018.5
2022-10-12T04:47:42.001Z,1018.4
2022-10-12T04:48:45.145Z,1018.4
2022-10-12T04:49:48.499Z,1018.5
2022-10-12T04:50:51.284Z,1018.4
2022-10-12T04:51:55.068Z,1018.5
2022-10-12T04:52:57.645Z,1018.5
2022-10-12T04:54:00.160Z,1018.5
2022-10-12T04:55:03.346Z,1018.5
2022-10-12T04:56:06.811Z,1018.5
2022-10-12T04:57:10.474Z,1018.4
2022-10-12T04:58:13.925Z,1018.5
2022-10-12T04:59:17.329Z,1018.5
2022-10-12T05:00:19.492Z,1018.4
2022-10-12T05:01:22.990Z,1018.4
2022-10-12T05:02:25.596Z,1018.4
2022-10-12T05:03:28.644Z,1018.4
2022-10-12T05:04:31.805Z,1018.4
2022-10-12T05:05:34.685Z,1018.4
2022-10-12T05:06:37.861Z,1018.4
2022-10-12T05:07:41.863Z,1018.4
2022-10-12T05:08:45.200Z,1018.5
2022-10-12T05:09:48.660Z,1018.4
2022-10-12T05:10:51.060Z,1018.4
2022-10-12T05:11:53.846Z,1018.4
2022-10-12T05:12:57.307Z,1018.4
2022-10-12T05:14:00.290Z,1018.4
2022-10-12T05:15:03.186Z,1018.4
2022-10-12T05:16:05.453Z,1018.4
2022-10-12T05:17:08.740Z,1018.3
2022-10-12T05:18:10.985Z,1018.3
2022-10-12T05:19:13.785Z,1018.4
2022-10-12T05:20:17.479Z,1018.4
2022-10-12T05:21:20.817Z,1018.4
2022-10-12T05:22:23.899Z,1018.3
2022-10-12T05:23:27.612Z,1018.3
2022-10-12T05:24:30.725Z,1018.4
2022-10-12T05:25:34.153Z,1018.4
2022-10-12T05:26:37.223Z,1018.4
2022-10-12T05:27:40.732Z,1018.4
2022-10-12T05:28:44.562Z,1018.4
2022-10-12T05:29:47.961Z,1018.4
2022-10-12T05:30:50.769Z,1018.4
2022-10-12T05:31:53.315Z,1018.4
2022-10-12T05:32:55.839Z,1018.4
2022-10-12T05:33:58.709Z,1018.4
2022-10-12T05:35:01.950Z,1018.4
2022-10-12T05:36:05.649Z,1018.4
2022-10-12T05:37:08.084Z,1018.4
2022-10-12T05:38:11.508Z,1018.4
2022-10-12T05:39:15.025Z,1018.4
2022-10-12T05:40:17.619Z,1018.4
2022-10-12T05:41:20.769Z,1018.4
2022-10-12T05:42:24.474Z,1018.4
2022-10-12T05:43:27.461Z,1018.4
2022-10-12T05:44:30.696Z,1018.4
2022-10-12T05:45:32.936Z,1018.5
2022-10-12T05:46:35.925Z,1018.5
2022-10-12T05:47:39.899Z,1018.5
2022-10-12T05:48:43.610Z,1018.5
2022-10-12T05:49:46.197Z,1018.5
2022-10-12T05:50:49.364Z,1018.6
2022-10-12T05:51:52.420Z,1018.5
2022-10-12T05:52:55.874Z,1018.5
2022-10-12T05:53:58.388Z,1018.5
2022-10-12T05:55:01.895Z,1018.5
2022-10-12T05:56:05.290Z,1018.5
2022-10-12T05:57:08.162Z,1018.5
2022-10-12T05:58:11.351Z,1018.4
2022-10-12T05:59:14.511Z,1018.5
2022-10-12T06:00:18.037Z,1018.5
2022-10-12T06:01:21.097Z,1018.5
2022-10-12T06:02:24.320Z,1018.5
2022-10-12T06:03:32.761Z,1018.5
2022-10-12T06:04:38.238Z,1018.5
2022-10-12T06:05:41.981Z,1018.5
2022-10-12T06:06:45.371Z,1018.5
2022-10-12T06:07:48.795Z,1018.5
2022-10-12T06:08:51.693Z,1018.5
2022-10-12T06:09:54.845Z,1018.5
2022-10-12T06:10:58.072Z,1018.4
2022-10-12T06:12:00.315Z,1018.5
2022-10-12T06:13:03.513Z,1018.5
2022-10-12T06:14:05.662Z,1018.5
2022-10-12T06:15:09.340Z,1018.5
2022-10-12T06:16:12.032Z,1018.5
2022-10-12T06:17:14.561Z,1018.6
2022-10-12T06:18:18.265Z,1018.5
2022-10-12T06:19:21.742Z,1018.5
2022-10-12T06:20:24.957Z,1018.5
2022-10-12T06:21:35.505Z,1018.5
2022-10-12T06:22:39.443Z,1018.5
2022-10-12T06:23:43.878Z,1018.5
2022-10-12T06:24:46.965Z,1018.5
2022-10-12T06:25:49.903Z,1018.5
2022-10-12T06:26:53.079Z,1018.6
2022-10-12T06:27:56.498Z,1018.6
2022-10-12T06:29:00.224Z,1018.5
2022-10-12T06:30:03.600Z,1018.6
2022-10-12T06:31:06.385Z,1018.6
2022-10-12T06:32:09.834Z,1018.6
2022-10-12T06:33:12.895Z,1018.5
2022-10-12T06:34:15.973Z,1018.5
2022-10-12T06:35:19.228Z,1018.6
2022-10-12T06:36:22.105Z,1018.6
2022-10-12T06:37:50.519Z,1018.5
2022-10-12T06:38:54.078Z,1018.5
2022-10-12T06:39:57.513Z,1018.5
2022-10-12T06:41:00.889Z,1018.5
2022-10-12T06:42:04.581Z,1018.5
2022-10-12T06:43:08.239Z,1018.5
2022-10-12T06:44:10.482Z,1018.5
2022-10-12T06:45:13.312Z,1018.5
2022-10-12T06:46:16.308Z,1018.5
2022-10-12T06:47:18.848Z,1018.5
2022-10-12T06:48:21.927Z,1018.5
2022-10-12T06:49:24.635Z,1018.5
2022-10-12T06:50:26.943Z,1018.5
2022-10-12T06:51:29.372Z,1018.5
2022-10-12T06:52:32.727Z,1018.5
2022-10-12T06:53:35.839Z,1018.4
2022-10-12T06:54:39.915Z,1018.5
2022-10-12T06:55:42.800Z,1018.5
2022-10-12T06:56:46.145Z,1018.5
2022-10-12T06:57:49.936Z,1018.6
2022-10-12T06:58:52.813Z,1018.5
2022-10-12T06:59:55.344Z,1018.6
2022-10-12T07:00:59.142Z,1018.6
2022-10-12T07:02:02.576Z,1018.6
2022-10-12T07:03:05.732Z,1018.6
2022-10-12T07:04:09.092Z,1018.6
2022-10-12T07:05:11.882Z,1018.6
2022-10-12T07:06:14.676Z,1018.5
2022-10-12T07:07:18.287Z,1018.6
2022-10-12T07:08:22.096Z,1018.6
2022-10-12T07:09:25.838Z,1018.6
2022-10-12T07:10:29.372Z,1018.6
2022-10-12T07:11:32.173Z,1018.6
2022-10-12T07:12:35.173Z,1018.6
2022-10-12T07:13:40.773Z,1018.7
2022-10-12T07:14:44.117Z,1018.7
2022-10-12T07:15:46.546Z,1018.6
2022-10-12T07:16:55.739Z,1018.7
2022-10-12T07:17:59.174Z,1018.6
2022-10-12T07:19:02.277Z,1018.7
2022-10-12T07:20:06.024Z,1018.7
2022-10-12T07:21:09.444Z,1018.7
2022-10-12T07:22:12.239Z,1018.7
2022-10-12T07:23:15.379Z,1018.6
2022-10-12T07:24:18.180Z,1018.7
2022-10-12T07:25:20.797Z,1018.7
2022-10-12T07:26:24.242Z,1018.7
2022-10-12T07:27:26.947Z,1018.7
2022-10-12T07:28:30.607Z,1018.7
2022-10-12T07:29:35.047Z,1018.7
2022-10-12T07:30:38.390Z,1018.6
2022-10-12T07:31:41.490Z,1018.6
2022-10-12T07:32:43.749Z,1018.6
2022-10-12T07:33:46.824Z,1018.6
2022-10-12T07:34:49.642Z,1018.6
2022-10-12T07:36:14.972Z,1018.6
2022-10-12T07:38:01.128Z,1018.6
2022-10-12T07:39:04.291Z,1018.6
2022-10-12T07:40:07.660Z,1018.6
2022-10-12T07:41:11.032Z,1018.6
2022-10-12T07:42:19.745Z,1018.7
2022-10-12T07:43:22.878Z,1018.7
2022-10-12T07:44:26.294Z,1018.7
2022-10-12T07:45:30.489Z,1018.7
2022-10-12T07:46:33.413Z,1018.7
2022-10-12T07:47:37.566Z,1018.7
2022-10-12T07:48:50.381Z,1018.7
2022-10-12T07:49:53.520Z,1018.7
2022-10-12T07:50:56.387Z,1018.7
2022-10-12T07:51:59.390Z,1018.7
2022-10-12T07:53:02.181Z,1018.6
2022-10-12T07:54:04.787Z,1018.7
2022-10-12T07:55:08.153Z,1018.6
2022-10-12T07:56:10.941Z,1018.6
2022-10-12T07:57:14.974Z,1018.6
2022-10-12T07:58:18.797Z,1018.6
2022-10-12T07:59:21.625Z,1018.6
2022-10-12T08:00:24.663Z,1018.6
2022-10-12T08:01:28.456Z,1018.6
2022-10-12T08:02:31.675Z,1018.6
2022-10-12T08:03:35.123Z,1018.6
2022-10-12T08:04:38.565Z,1018.5
2022-10-12T08:05:41.365Z,1018.5
2022-10-12T08:06:44.171Z,1018.6
2022-10-12T08:07:46.889Z,1018.5
2022-10-12T08:08:50.125Z,1018.5
2022-10-12T08:09:53.269Z,1018.5
2022-10-12T08:10:56.690Z,1018.5
2022-10-12T08:11:59.829Z,1018.5
2022-10-12T08:13:01.827Z,1018.5
2022-10-12T08:14:05.858Z,1018.5
2022-10-12T08:15:08.968Z,1018.5
2022-10-12T08:16:12.135Z,1018.5
2022-10-12T08:17:16.100Z,1018.5
2022-10-12T08:18:19.874Z,1018.5
2022-10-12T08:19:22.748Z,1018.5
2022-10-12T08:20:26.287Z,1018.5
2022-10-12T08:21:29.660Z,1018.6
2022-10-12T08:22:32.461Z,1018.6
2022-10-12T08:23:35.754Z,1018.6
2022-10-12T08:24:38.470Z,1018.6
2022-10-12T08:25:42.075Z,1018.6
2022-10-12T08:26:45.067Z,1018.6
2022-10-12T08:27:48.289Z,1018.6
2022-10-12T08:28:51.622Z,1018.6
2022-10-12T08:29:56.015Z,1018.6
2022-10-12T08:30:58.903Z,1018.6
2022-10-12T08:32:02.244Z,1018.6
2022-10-12T08:33:10.755Z,1018.6
2022-10-12T08:34:14.091Z,1018.6
2022-10-12T08:35:16.538Z,1018.6
2022-10-12T08:36:19.724Z,1018.6
2022-10-12T08:37:23.192Z,1018.6
2022-10-12T08:38:26.904Z,1018.7
2022-10-12T08:39:29.905Z,1018.7
2022-10-12T08:40:32.430Z,1018.7
2022-10-12T08:41:35.535Z,1018.7
2022-10-12T08:42:38.969Z,1018.6
2022-10-12T08:43:42.251Z,1018.6
2022-10-12T08:44:45.758Z,1018.6
2022-10-12T08:45:48.940Z,1018.6
2022-10-12T08:46:51.203Z,1018.6
2022-10-12T08:47:54.660Z,1018.7
2022-10-12T08:48:58.468Z,1018.6
2022-10-12T08:50:01.890Z,1018.6
2022-10-12T08:51:05.134Z,1018.6
2022-10-12T08:52:12.741Z,1018.7
2022-10-12T08:53:15.814Z,1018.6
2022-10-12T08:54:18.613Z,1018.7
2022-10-12T08:55:21.680Z,1018.6
2022-10-12T08:56:25.193Z,1018.6
2022-10-12T08:57:28.555Z,1018.6
2022-10-12T08:58:32.651Z,1018.6
2022-10-12T08:59:36.394Z,1018.6
2022-10-12T09:00:39.886Z,1018.6
2022-10-12T09:01:43.790Z,1018.6
2022-10-12T09:02:47.482Z,1018.6
2022-10-12T09:03:50.268Z,1018.6
2022-10-12T09:04:53.824Z,1018.6
2022-10-12T09:05:56.625Z,1018.6
2022-10-12T09:06:59.546Z,1018.6
2022-10-12T09:08:02.141Z,1018.6
2022-10-12T09:09:05.498Z,1018.6
2022-10-12T09:10:08.387Z,1018.6
2022-10-12T09:11:11.220Z,1018.7
2022-10-12T09:12:14.857Z,1018.7
2022-10-12T09:13:17.904Z,1018.7
2022-10-12T09:14:21.073Z,1018.7
2022-10-12T09:15:24.452Z,1018.6
2022-10-12T09:16:28.176Z,1018.7
2022-10-12T09:17:31.740Z,1018.7
2022-10-12T09:18:41.397Z,1018.7
2022-10-12T09:19:44.923Z,1018.7
2022-10-12T09:20:48.885Z,1018.6
2022-10-12T09:21:51.872Z,1018.6
2022-10-12T09:22:55.046Z,1018.6
2022-10-12T09:23:58.423Z,1018.6
2022-10-12T09:25:01.224Z,1018.6
2022-10-12T09:26:04.168Z,1018.6
2022-10-12T09:27:07.325Z,1018.6
2022-10-12T09:28:11.142Z,1018.6
2022-10-12T09:29:14.285Z,1018.6
2022-10-12T09:30:17.631Z,1018.6
2022-10-12T09:31:19.983Z,1018.6
2022-10-12T09:32:23.163Z,1018.5
2022-10-12T09:33:27.156Z,1018.6
2022-10-12T09:34:30.641Z,1018.6
2022-10-12T09:35:33.786Z,1018.6
2022-10-12T09:36:37.343Z,1018.5
2022-10-12T09:37:41.086Z,1018.6
2022-10-12T09:38:44.518Z,1018.5
2022-10-12T09:39:48.212Z,1018.6
2022-10-12T09:40:51.315Z,1018.6
2022-10-12T09:41:54.379Z,1018.5
2022-10-12T09:42:58.125Z,1018.6
2022-10-12T09:44:01.657Z,1018.5
2022-10-12T09:45:03.820Z,1018.5
2022-10-12T09:46:07.465Z,1018.5
2022-10-12T09:47:10.250Z,1018.5
2022-10-12T09:48:13.513Z,1018.4
2022-10-12T09:49:17.077Z,1018.5
2022-10-12T09:50:20.223Z,1018.5
2022-10-12T09:51:22.738Z,1018.5
2022-10-12T09:52:26.751Z,1018.5
2022-10-12T09:53:29.833Z,1018.5
2022-10-12T09:54:33.067Z,1018.4
2022-10-12T09:55:36.084Z,1018.4
2022-10-12T09:56:39.176Z,1018.4
2022-10-12T09:57:42.913Z,1018.4
2022-10-12T09:58:46.103Z,1018.4
2022-10-12T09:59:49.531Z,1018.4
2022-10-12T10:00:52.727Z,1018.4
2022-10-12T10:01:55.949Z,1018.4
2022-10-12T10:02:58.898Z,1018.4
2022-10-12T10:04:01.795Z,1018.4
2022-10-12T10:05:05.865Z,1018.4
2022-10-12T10:06:09.124Z,1018.3
2022-10-12T10:07:12.578Z,1018.3
2022-10-12T10:08:16.426Z,1018.3
2022-10-12T10:09:19.319Z,1018.3
2022-10-12T10:10:30.890Z,1018.3
2022-10-12T10:11:34.356Z,1018.2
2022-10-12T10:12:37.983Z,1018.2
2022-10-12T10:13:41.727Z,1018.2
2022-10-12T10:14:44.634Z,1018.2
2022-10-12T10:15:47.748Z,1018.2
2022-10-12T10:16:50.699Z,1018.2
2022-10-12T10:17:53.445Z,1018.2
2022-10-12T10:18:56.361Z,1018.1
2022-10-12T10:19:59.456Z,1018.1
2022-10-12T10:21:03.004Z,1018.1
2022-10-12T10:22:05.565Z,1018.1
2022-10-12T10:23:08.679Z,1018.1
2022-10-12T10:24:12.621Z,1018.1
2022-10-12T10:25:15.751Z,1018.1
2022-10-12T10:26:18.995Z,1018.1
2022-10-12T10:27:21.895Z,1018
2022-10-12T10:28:24.738Z,1018
2022-10-12T10:29:27.978Z,1018
2022-10-12T10:30:39.877Z,1018
2022-10-12T10:31:46.850Z,1018
2022-10-12T10:32:50.024Z,1018
2022-10-12T10:33:53.830Z,1018
2022-10-12T10:34:57.409Z,1018
2022-10-12T10:36:00.965Z,1018
2022-10-12T10:37:04.820Z,1018
2022-10-12T10:38:07.759Z,1018
2022-10-12T10:39:10.873Z,1017.9
2022-10-12T10:40:15.287Z,1017.9
2022-10-12T10:41:20.959Z,1017.9
2022-10-12T10:42:24.358Z,1018
2022-10-12T10:43:27.542Z,1018
2022-10-12T10:44:30.941Z,1017.9
2022-10-12T10:45:35.031Z,1017.9
2022-10-12T10:46:39.112Z,1018
2022-10-12T10:47:41.711Z,1017.9
2022-10-12T10:48:45.592Z,1017.9
2022-10-12T10:49:50.255Z,1018
2022-10-12T10:50:53.164Z,1017.9
2022-10-12T10:51:55.749Z,1017.9
2022-10-12T10:52:59.301Z,1017.9
2022-10-12T10:54:02.119Z,1017.8
2022-10-12T10:55:05.829Z,1017.9
2022-10-12T10:56:09.157Z,1017.8
2022-10-12T10:57:12.352Z,1017.8
2022-10-12T10:58:15.501Z,1017.8
2022-10-12T10:59:18.484Z,1017.8
2022-10-12T11:00:51.543Z,1017.8
2022-10-12T11:01:55.105Z,1017.9
2022-10-12T11:02:58.657Z,1017.8
2022-10-12T11:04:01.746Z,1017.8
2022-10-12T11:05:04.927Z,1017.8
2022-10-12T11:06:08.104Z,1017.8
2022-10-12T11:07:11.217Z,1017.8
2022-10-12T11:08:14.599Z,1017.8
2022-10-12T11:09:17.208Z,1017.8
2022-10-12T11:10:20.610Z,1017.8
2022-10-12T11:11:24.509Z,1017.8
2022-10-12T11:12:31.963Z,1017.7
2022-10-12T11:13:35.144Z,1017.7
2022-10-12T11:14:37.876Z,1017.7
2022-10-12T11:15:40.405Z,1017.6
2022-10-12T11:16:42.934Z,1017.7
2022-10-12T11:17:46.014Z,1017.6
2022-10-12T11:18:49.196Z,1017.6
2022-10-12T11:19:52.216Z,1017.6
2022-10-12T11:20:55.450Z,1017.6
2022-10-12T11:21:58.396Z,1017.6
2022-10-12T11:23:01.938Z,1017.6
2022-10-12T11:24:06.070Z,1017.6
2022-10-12T11:25:09.516Z,1017.6
2022-10-12T11:26:12.372Z,1017.6
2022-10-12T11:27:16.057Z,1017.6
2022-10-12T11:28:19.980Z,1017.5
2022-10-12T11:29:23.127Z,1017.6
2022-10-12T11:30:26.280Z,1017.6
2022-10-12T11:31:30.313Z,1017.6
2022-10-12T11:32:33.873Z,1017.6
2022-10-12T11:33:36.664Z,1017.6
2022-10-12T11:34:40.562Z,1017.6
2022-10-12T11:35:44.375Z,1017.6
2022-10-12T11:37:19.801Z,1017.6
2022-10-12T11:38:24.480Z,1017.6
2022-10-12T11:39:28.220Z,1017.6
2022-10-12T11:41:09.600Z,1017.5
2022-10-12T11:42:43.982Z,1017.5
2022-10-12T11:43:46.921Z,1017.5
2022-10-12T11:44:49.978Z,1017.5
2022-10-12T11:45:53.699Z,1017.5
2022-10-12T11:46:57.474Z,1017.5
2022-10-12T11:48:01.194Z,1017.5
2022-10-12T11:49:04.186Z,1017.5
2022-10-12T11:50:06.979Z,1017.5
2022-10-12T11:51:10.626Z,1017.5
2022-10-12T11:52:13.700Z,1017.5
2022-10-12T11:53:16.739Z,1017.5
2022-10-12T11:54:19.973Z,1017.5
2022-10-12T11:55:23.757Z,1017.5
2022-10-12T11:56:28.123Z,1017.4
2022-10-12T11:57:31.873Z,1017.4
2022-10-12T11:59:01.623Z,1017.4
2022-10-12T12:00:05.217Z,1017.4
2022-10-12T12:01:09.153Z,1017.4
2022-10-12T12:02:11.882Z,1017.3
2022-10-12T12:03:14.940Z,1017.3
2022-10-12T12:04:47.493Z,1017.3
2022-10-12T12:05:53.342Z,1017.3
2022-10-12T12:06:56.769Z,1017.3
2022-10-12T12:07:59.963Z,1017.3
2022-10-12T12:09:03.182Z,1017.3
2022-10-12T12:10:06.227Z,1017.3
2022-10-12T12:11:09.635Z,1017.3
2022-10-12T12:12:13.097Z,1017.2
2022-10-12T12:13:16.478Z,1017.3
2022-10-12T12:14:20.686Z,1017.3
2022-10-12T12:15:23.210Z,1017.2
2022-10-12T12:16:26.442Z,1017.2
2022-10-12T12:17:32.755Z,1017.2
2022-10-12T12:18:35.980Z,1017.2
2022-10-12T12:19:38.887Z,1017.2
2022-10-12T12:20:43.384Z,1017.2
2022-10-12T12:21:46.860Z,1017.1
2022-10-12T12:22:49.404Z,1017.1
2022-10-12T12:23:52.994Z,1017.1
2022-10-12T12:24:56.364Z,1017.1
2022-10-12T12:25:59.496Z,1017.2
2022-10-12T12:27:03.163Z,1017.1
2022-10-12T12:28:06.244Z,1017.1
2022-10-12T12:29:09.159Z,1017.1
2022-10-12T12:30:12.257Z,1017.1
2022-10-12T12:31:15.421Z,1017.1
2022-10-12T12:32:18.659Z,1017
2022-10-12T12:33:21.190Z,1017.1
2022-10-12T12:34:24.377Z,1017
2022-10-12T12:35:27.169Z,1017
2022-10-12T12:36:30.798Z,1017
2022-10-12T12:37:34.150Z,1017
2022-10-12T12:38:37.590Z,1017
2022-10-12T12:39:41.469Z,1017
2022-10-12T12:40:46.825Z,1017
2022-10-12T12:42:00.707Z,1017
2022-10-12T12:43:05.713Z,1017
2022-10-12T12:44:08.458Z,1017
2022-10-12T12:45:11.815Z,1016.9
2022-10-12T12:46:15.079Z,1016.9
2022-10-12T12:47:46.049Z,1016.9
2022-10-12T12:48:49.930Z,1016.9
2022-10-12T12:49:52.481Z,1016.8
2022-10-12T12:50:55.713Z,1016.8
2022-10-12T12:51:59.276Z,1016.9
2022-10-12T12:53:02.659Z,1016.8
2022-10-12T12:54:05.252Z,1016.9
2022-10-12T12:55:08.072Z,1016.8
2022-10-12T12:56:11.479Z,1016.8
2022-10-12T12:57:14.521Z,1016.8
2022-10-12T12:58:18.510Z,1016.8
2022-10-12T12:59:21.396Z,1016.8
2022-10-12T13:00:24.818Z,1016.7
2022-10-12T13:01:29.691Z,1016.8
2022-10-12T13:02:34.440Z,1016.7
2022-10-12T13:03:37.719Z,1016.7
2022-10-12T13:04:40.819Z,1016.8
2022-10-12T13:05:44.529Z,1016.8
2022-10-12T13:06:47.527Z,1016.9
2022-10-12T13:07:50.699Z,1016.8
2022-10-12T13:08:54.093Z,1016.9
2022-10-12T13:09:56.693Z,1016.9
2022-10-12T13:10:59.513Z,1016.9
2022-10-12T13:12:02.773Z,1016.9
2022-10-12T13:13:06.035Z,1016.8
2022-10-12T13:14:09.170Z,1016.9
2022-10-12T13:15:12.552Z,1016.8
2022-10-12T13:17:30.498Z,1016.9
2022-10-12T13:18:48.964Z,1016.9
2022-10-12T13:19:52.647Z,1016.8
2022-10-12T13:20:55.902Z,1016.8
2022-10-12T13:21:59.338Z,1016.8
2022-10-12T13:23:02.782Z,1016.8